Terminal Aerodrome Forecast
Issued by NWS

Current Version | Previous Version | Text Only | Print | Product List | Glossary Off
Versions: 1 2 3 4 5 6 7 8 9 10 11 12 13 14 15 16 17 18 19 20 21 22 23 24

000
FTUS41 KPBZ 240600 AAA
TAFMGW
TAF AMD
KMGW 240659Z 2407/2506 00000KT P6SM SCT015
      TEMPO 2407/2411 3SM BR
     FM241400 27005KT P6SM BKN200=

USA.gov is the U.S. government's official web portal to all federal, state and local government web resources and services.